sensor_id;sensor_type;location;lat;lon;timestamp;P1;durP1;ratioP1;P2;durP2;ratioP2
7471;SDS011;3777;48.722;8.110;2022-12-18T00:02:20;75.30;;;45.40;;
7471;SDS011;3777;48.722;8.110;2022-12-18T00:04:48;76.82;;;45.72;;
7471;SDS011;3777;48.722;8.110;2022-12-18T00:07:16;73.07;;;43.60;;
7471;SDS011;3777;48.722;8.110;2022-12-18T00:09:43;72.50;;;44.53;;
7471;SDS011;3777;48.722;8.110;2022-12-18T00:12:10;79.15;;;46.22;;
7471;SDS011;3777;48.722;8.110;2022-12-18T00:14:37;77.75;;;44.70;;
7471;SDS011;3777;48.722;8.110;2022-12-18T00:17:04;78.05;;;46.25;;
7471;SDS011;3777;48.722;8.110;2022-12-18T00:19:30;79.07;;;46.13;;
7471;SDS011;3777;48.722;8.110;2022-12-18T00:21:57;77.23;;;45.20;;
7471;SDS011;3777;48.722;8.110;2022-12-18T00:24:26;75.72;;;45.63;;
7471;SDS011;3777;48.722;8.110;2022-12-18T00:26:53;74.47;;;45.92;;
7471;SDS011;3777;48.722;8.110;2022-12-18T00:29:20;70.75;;;42.60;;
7471;SDS011;3777;48.722;8.110;2022-12-18T00:31:46;70.72;;;42.88;;
7471;SDS011;3777;48.722;8.110;2022-12-18T00:34:13;75.18;;;45.88;;
7471;SDS011;3777;48.722;8.110;2022-12-18T00:36:40;74.95;;;44.28;;
7471;SDS011;3777;48.722;8.110;2022-12-18T00:39:08;71.35;;;44.70;;
7471;SDS011;3777;48.722;8.110;2022-12-18T00:41:38;74.15;;;45.13;;
7471;SDS011;3777;48.722;8.110;2022-12-18T00:44:22;73.57;;;44.17;;
7471;SDS011;3777;48.722;8.110;2022-12-18T00:46:49;74.90;;;42.90;;
7471;SDS011;3777;48.722;8.110;2022-12-18T00:49:17;71.28;;;43.10;;
7471;SDS011;3777;48.722;8.110;2022-12-18T00:51:45;68.75;;;42.20;;
7471;SDS011;3777;48.722;8.110;2022-12-18T00:54:12;65.43;;;40.75;;
7471;SDS011;3777;48.722;8.110;2022-12-18T00:56:41;62.22;;;39.65;;
7471;SDS011;3777;48.722;8.110;2022-12-18T00:59:08;64.65;;;40.53;;
7471;SDS011;3777;48.722;8.110;2022-12-18T01:01:35;65.13;;;40.97;;
7471;SDS011;3777;48.722;8.110;2022-12-18T01:04:02;66.57;;;41.67;;
7471;SDS011;3777;48.722;8.110;2022-12-18T01:06:29;63.72;;;41.72;;
7471;SDS011;3777;48.722;8.110;2022-12-18T01:08:56;69.13;;;42.47;;
7471;SDS011;3777;48.722;8.110;2022-12-18T01:11:23;70.20;;;43.63;;
7471;SDS011;3777;48.722;8.110;2022-12-18T01:13:53;68.40;;;41.78;;
7471;SDS011;3777;48.722;8.110;2022-12-18T01:16:21;70.53;;;42.00;;
7471;SDS011;3777;48.722;8.110;2022-12-18T01:18:50;67.80;;;42.13;;
7471;SDS011;3777;48.722;8.110;2022-12-18T01:21:18;73.85;;;43.15;;
7471;SDS011;3777;48.722;8.110;2022-12-18T01:23:46;69.72;;;41.60;;
7471;SDS011;3777;48.722;8.110;2022-12-18T01:26:16;67.75;;;42.03;;
7471;SDS011;3777;48.722;8.110;2022-12-18T01:28:43;73.72;;;45.70;;
7471;SDS011;3777;48.722;8.110;2022-12-18T01:31:13;91.80;;;59.70;;
7471;SDS011;3777;48.722;8.110;2022-12-18T01:33:42;71.05;;;45.00;;
7471;SDS011;3777;48.722;8.110;2022-12-18T01:36:14;73.70;;;45.83;;
7471;SDS011;3777;48.722;8.110;2022-12-18T01:38:42;77.32;;;46.60;;
7471;SDS011;3777;48.722;8.110;2022-12-18T01:41:10;76.78;;;46.17;;
7471;SDS011;3777;48.722;8.110;2022-12-18T01:43:42;72.90;;;45.05;;
7471;SDS011;3777;48.722;8.110;2022-12-18T01:46:16;73.00;;;44.70;;
7471;SDS011;3777;48.722;8.110;2022-12-18T01:48:44;75.13;;;45.47;;
7471;SDS011;3777;48.722;8.110;2022-12-18T01:51:13;75.32;;;45.35;;
7471;SDS011;3777;48.722;8.110;2022-12-18T01:53:41;71.65;;;44.03;;
7471;SDS011;3777;48.722;8.110;2022-12-18T01:56:11;73.15;;;44.08;;
7471;SDS011;3777;48.722;8.110;2022-12-18T01:58:42;75.18;;;45.17;;
7471;SDS011;3777;48.722;8.110;2022-12-18T02:01:16;75.87;;;45.73;;
7471;SDS011;3777;48.722;8.110;2022-12-18T02:03:43;71.40;;;42.63;;
7471;SDS011;3777;48.722;8.110;2022-12-18T02:06:13;71.68;;;43.65;;
7471;SDS011;3777;48.722;8.110;2022-12-18T02:08:56;75.65;;;44.53;;
7471;SDS011;3777;48.722;8.110;2022-12-18T02:11:37;70.70;;;43.38;;
7471;SDS011;3777;48.722;8.110;2022-12-18T02:14:11;73.25;;;43.33;;
7471;SDS011;3777;48.722;8.110;2022-12-18T02:16:52;73.32;;;44.75;;
7471;SDS011;3777;48.722;8.110;2022-12-18T02:19:44;76.97;;;46.55;;
7471;SDS011;3777;48.722;8.110;2022-12-18T02:22:25;69.37;;;43.20;;
7471;SDS011;3777;48.722;8.110;2022-12-18T02:25:00;69.18;;;43.33;;
7471;SDS011;3777;48.722;8.110;2022-12-18T02:27:38;72.30;;;44.60;;
7471;SDS011;3777;48.722;8.110;2022-12-18T02:30:07;70.72;;;45.08;;
7471;SDS011;3777;48.722;8.110;2022-12-18T02:32:36;68.43;;;42.30;;
7471;SDS011;3777;48.722;8.110;2022-12-18T02:35:07;68.30;;;42.70;;
7471;SDS011;3777;48.722;8.110;2022-12-18T02:37:36;72.57;;;44.97;;
7471;SDS011;3777;48.722;8.110;2022-12-18T02:40:07;69.78;;;42.88;;
7471;SDS011;3777;48.722;8.110;2022-12-18T02:42:35;64.18;;;40.60;;
7471;SDS011;3777;48.722;8.110;2022-12-18T02:45:04;69.97;;;43.92;;
7471;SDS011;3777;48.722;8.110;2022-12-18T02:47:32;67.13;;;41.28;;
7471;SDS011;3777;48.722;8.110;2022-12-18T02:50:05;73.18;;;44.83;;
7471;SDS011;3777;48.722;8.110;2022-12-18T02:52:39;72.88;;;44.72;;
7471;SDS011;3777;48.722;8.110;2022-12-18T02:55:17;74.20;;;44.70;;
7471;SDS011;3777;48.722;8.110;2022-12-18T02:57:53;73.20;;;44.77;;
7471;SDS011;3777;48.722;8.110;2022-12-18T03:00:26;74.95;;;46.00;;
7471;SDS011;3777;48.722;8.110;2022-12-18T03:02:59;71.85;;;43.80;;
7471;SDS011;3777;48.722;8.110;2022-12-18T03:05:33;69.28;;;43.75;;
7471;SDS011;3777;48.722;8.110;2022-12-18T03:08:03;71.65;;;44.17;;
7471;SDS011;3777;48.722;8.110;2022-12-18T03:10:35;76.03;;;44.33;;
7471;SDS011;3777;48.722;8.110;2022-12-18T03:13:08;75.65;;;44.67;;
7471;SDS011;3777;48.722;8.110;2022-12-18T03:15:41;74.15;;;44.40;;
7471;SDS011;3777;48.722;8.110;2022-12-18T03:18:13;72.18;;;43.33;;
7471;SDS011;3777;48.722;8.110;2022-12-18T03:20:45;79.70;;;45.37;;
7471;SDS011;3777;48.722;8.110;2022-12-18T03:23:15;73.32;;;43.67;;
7471;SDS011;3777;48.722;8.110;2022-12-18T03:25:47;70.28;;;41.38;;
7471;SDS011;3777;48.722;8.110;2022-12-18T03:28:19;70.05;;;42.55;;
7471;SDS011;3777;48.722;8.110;2022-12-18T03:30:50;71.03;;;42.15;;
7471;SDS011;3777;48.722;8.110;2022-12-18T03:33:24;68.20;;;41.90;;
7471;SDS011;3777;48.722;8.110;2022-12-18T03:35:54;69.47;;;42.53;;
7471;SDS011;3777;48.722;8.110;2022-12-18T03:38:21;68.20;;;42.10;;
7471;SDS011;3777;48.722;8.110;2022-12-18T03:40:51;71.82;;;41.95;;
7471;SDS011;3777;48.722;8.110;2022-12-18T03:43:27;72.38;;;42.13;;
7471;SDS011;3777;48.722;8.110;2022-12-18T03:46:06;74.32;;;42.95;;
7471;SDS011;3777;48.722;8.110;2022-12-18T03:48:38;70.20;;;42.13;;
7471;SDS011;3777;48.722;8.110;2022-12-18T03:51:10;72.50;;;41.70;;
7471;SDS011;3777;48.722;8.110;2022-12-18T03:53:43;69.88;;;41.83;;
7471;SDS011;3777;48.722;8.110;2022-12-18T03:56:17;69.68;;;41.42;;
7471;SDS011;3777;48.722;8.110;2022-12-18T03:58:47;70.53;;;42.40;;
7471;SDS011;3777;48.722;8.110;2022-12-18T04:01:29;71.18;;;41.50;;
7471;SDS011;3777;48.722;8.110;2022-12-18T04:04:18;72.78;;;41.70;;
7471;SDS011;3777;48.722;8.110;2022-12-18T04:06:46;82.55;;;41.97;;
7471;SDS011;3777;48.722;8.110;2022-12-18T04:09:15;77.00;;;41.40;;
7471;SDS011;3777;48.722;8.110;2022-12-18T04:11:42;68.75;;;41.03;;
7471;SDS011;3777;48.722;8.110;2022-12-18T04:14:19;75.37;;;43.17;;
7471;SDS011;3777;48.722;8.110;2022-12-18T04:19:33;70.15;;;39.88;;
7471;SDS011;3777;48.722;8.110;2022-12-18T04:22:00;79.70;;;43.42;;
7471;SDS011;3777;48.722;8.110;2022-12-18T04:24:27;73.80;;;42.22;;
7471;SDS011;3777;48.722;8.110;2022-12-18T04:26:54;79.60;;;43.10;;
7471;SDS011;3777;48.722;8.110;2022-12-18T04:29:21;77.45;;;43.58;;
7471;SDS011;3777;48.722;8.110;2022-12-18T04:31:48;77.67;;;43.60;;
7471;SDS011;3777;48.722;8.110;2022-12-18T04:34:16;75.35;;;42.72;;
7471;SDS011;3777;48.722;8.110;2022-12-18T04:36:43;75.63;;;43.28;;
7471;SDS011;3777;48.722;8.110;2022-12-18T04:39:10;68.40;;;41.65;;
7471;SDS011;3777;48.722;8.110;2022-12-18T04:41:37;73.88;;;43.70;;
7471;SDS011;3777;48.722;8.110;2022-12-18T04:44:04;76.93;;;43.42;;
7471;SDS011;3777;48.722;8.110;2022-12-18T04:46:31;76.25;;;42.85;;
7471;SDS011;3777;48.722;8.110;2022-12-18T04:48:58;70.63;;;42.63;;
7471;SDS011;3777;48.722;8.110;2022-12-18T04:51:26;77.30;;;44.05;;
7471;SDS011;3777;48.722;8.110;2022-12-18T04:53:53;76.38;;;42.83;;
7471;SDS011;3777;48.722;8.110;2022-12-18T04:56:20;71.82;;;40.38;;
7471;SDS011;3777;48.722;8.110;2022-12-18T04:58:47;67.90;;;40.22;;
7471;SDS011;3777;48.722;8.110;2022-12-18T05:01:15;74.22;;;42.22;;
7471;SDS011;3777;48.722;8.110;2022-12-18T05:03:43;69.20;;;40.65;;
7471;SDS011;3777;48.722;8.110;2022-12-18T05:06:10;81.43;;;40.47;;
7471;SDS011;3777;48.722;8.110;2022-12-18T05:08:38;69.72;;;40.45;;
7471;SDS011;3777;48.722;8.110;2022-12-18T05:11:06;71.75;;;40.72;;
7471;SDS011;3777;48.722;8.110;2022-12-18T05:13:35;71.10;;;40.17;;
7471;SDS011;3777;48.722;8.110;2022-12-18T05:16:03;75.53;;;41.87;;
7471;SDS011;3777;48.722;8.110;2022-12-18T05:18:30;75.00;;;42.05;;
7471;SDS011;3777;48.722;8.110;2022-12-18T05:20:57;74.00;;;43.00;;
7471;SDS011;3777;48.722;8.110;2022-12-18T05:23:24;79.50;;;43.90;;
7471;SDS011;3777;48.722;8.110;2022-12-18T05:25:54;78.85;;;42.92;;
7471;SDS011;3777;48.722;8.110;2022-12-18T05:28:22;79.23;;;43.80;;
7471;SDS011;3777;48.722;8.110;2022-12-18T05:30:50;77.90;;;41.60;;
7471;SDS011;3777;48.722;8.110;2022-12-18T05:33:18;72.32;;;40.95;;
7471;SDS011;3777;48.722;8.110;2022-12-18T05:35:49;70.70;;;40.78;;
7471;SDS011;3777;48.722;8.110;2022-12-18T05:38:17;80.07;;;40.50;;
7471;SDS011;3777;48.722;8.110;2022-12-18T05:40:44;71.75;;;39.60;;
7471;SDS011;3777;48.722;8.110;2022-12-18T05:43:12;74.45;;;40.33;;
7471;SDS011;3777;48.722;8.110;2022-12-18T05:45:42;73.15;;;41.63;;
7471;SDS011;3777;48.722;8.110;2022-12-18T05:48:09;72.13;;;40.27;;
7471;SDS011;3777;48.722;8.110;2022-12-18T05:50:40;76.80;;;42.03;;
7471;SDS011;3777;48.722;8.110;2022-12-18T05:53:08;65.30;;;39.13;;
7471;SDS011;3777;48.722;8.110;2022-12-18T05:55:36;69.78;;;40.25;;
7471;SDS011;3777;48.722;8.110;2022-12-18T05:58:04;66.17;;;37.30;;
7471;SDS011;3777;48.722;8.110;2022-12-18T06:00:34;65.22;;;38.03;;
7471;SDS011;3777;48.722;8.110;2022-12-18T06:03:04;68.20;;;38.95;;
7471;SDS011;3777;48.722;8.110;2022-12-18T06:05:34;65.72;;;38.20;;
7471;SDS011;3777;48.722;8.110;2022-12-18T06:08:02;70.53;;;40.08;;
7471;SDS011;3777;48.722;8.110;2022-12-18T06:10:29;60.33;;;35.20;;
7471;SDS011;3777;48.722;8.110;2022-12-18T06:12:56;68.13;;;37.90;;
7471;SDS011;3777;48.722;8.110;2022-12-18T06:15:23;66.50;;;37.92;;
7471;SDS011;3777;48.722;8.110;2022-12-18T06:17:52;75.53;;;40.88;;
7471;SDS011;3777;48.722;8.110;2022-12-18T06:20:18;74.57;;;40.63;;
7471;SDS011;3777;48.722;8.110;2022-12-18T06:22:46;70.25;;;39.22;;
7471;SDS011;3777;48.722;8.110;2022-12-18T06:25:13;72.85;;;40.67;;
7471;SDS011;3777;48.722;8.110;2022-12-18T06:27:40;80.57;;;42.63;;
7471;SDS011;3777;48.722;8.110;2022-12-18T06:30:08;76.72;;;41.67;;
7471;SDS011;3777;48.722;8.110;2022-12-18T06:32:35;73.73;;;39.83;;
7471;SDS011;3777;48.722;8.110;2022-12-18T06:35:04;73.47;;;40.35;;
7471;SDS011;3777;48.722;8.110;2022-12-18T06:37:32;67.30;;;38.20;;
7471;SDS011;3777;48.722;8.110;2022-12-18T06:39:59;70.70;;;39.35;;
7471;SDS011;3777;48.722;8.110;2022-12-18T06:42:26;73.85;;;39.25;;
7471;SDS011;3777;48.722;8.110;2022-12-18T06:44:54;68.53;;;38.03;;
7471;SDS011;3777;48.722;8.110;2022-12-18T06:47:21;71.03;;;37.67;;
7471;SDS011;3777;48.722;8.110;2022-12-18T06:49:48;66.97;;;37.97;;
7471;SDS011;3777;48.722;8.110;2022-12-18T06:52:16;67.82;;;37.38;;
7471;SDS011;3777;48.722;8.110;2022-12-18T06:54:43;67.87;;;36.97;;
7471;SDS011;3777;48.722;8.110;2022-12-18T06:57:10;65.53;;;37.03;;
7471;SDS011;3777;48.722;8.110;2022-12-18T06:59:37;64.43;;;37.22;;
7471;SDS011;3777;48.722;8.110;2022-12-18T07:02:04;61.83;;;36.22;;
7471;SDS011;3777;48.722;8.110;2022-12-18T07:04:31;59.63;;;35.00;;
7471;SDS011;3777;48.722;8.110;2022-12-18T07:06:58;62.42;;;34.85;;
7471;SDS011;3777;48.722;8.110;2022-12-18T07:09:27;59.28;;;34.75;;
7471;SDS011;3777;48.722;8.110;2022-12-18T07:11:54;62.40;;;36.17;;
7471;SDS011;3777;48.722;8.110;2022-12-18T07:14:20;59.00;;;35.47;;
7471;SDS011;3777;48.722;8.110;2022-12-18T07:16:48;62.28;;;35.42;;
7471;SDS011;3777;48.722;8.110;2022-12-18T07:19:15;60.20;;;35.15;;
7471;SDS011;3777;48.722;8.110;2022-12-18T07:21:42;60.85;;;36.65;;
7471;SDS011;3777;48.722;8.110;2022-12-18T07:24:09;60.58;;;35.55;;
7471;SDS011;3777;48.722;8.110;2022-12-18T07:26:37;60.53;;;34.67;;
7471;SDS011;3777;48.722;8.110;2022-12-18T07:29:04;63.35;;;36.53;;
7471;SDS011;3777;48.722;8.110;2022-12-18T07:31:31;62.77;;;37.23;;
7471;SDS011;3777;48.722;8.110;2022-12-18T07:33:58;63.90;;;39.17;;
7471;SDS011;3777;48.722;8.110;2022-12-18T07:36:25;70.85;;;42.80;;
7471;SDS011;3777;48.722;8.110;2022-12-18T07:38:52;71.38;;;42.28;;
7471;SDS011;3777;48.722;8.110;2022-12-18T07:41:19;66.78;;;38.78;;
7471;SDS011;3777;48.722;8.110;2022-12-18T07:43:47;64.25;;;37.42;;
7471;SDS011;3777;48.722;8.110;2022-12-18T07:46:15;63.38;;;36.13;;
7471;SDS011;3777;48.722;8.110;2022-12-18T07:48:42;62.37;;;36.83;;
7471;SDS011;3777;48.722;8.110;2022-12-18T07:51:10;63.00;;;35.28;;
7471;SDS011;3777;48.722;8.110;2022-12-18T07:53:40;65.97;;;38.95;;
7471;SDS011;3777;48.722;8.110;2022-12-18T07:56:08;59.55;;;35.25;;
7471;SDS011;3777;48.722;8.110;2022-12-18T07:58:37;63.70;;;36.40;;
7471;SDS011;3777;48.722;8.110;2022-12-18T08:01:06;62.95;;;36.22;;
7471;SDS011;3777;48.722;8.110;2022-12-18T08:03:34;57.90;;;34.38;;
7471;SDS011;3777;48.722;8.110;2022-12-18T08:06:02;61.05;;;36.28;;
7471;SDS011;3777;48.722;8.110;2022-12-18T08:08:31;61.50;;;35.90;;
7471;SDS011;3777;48.722;8.110;2022-12-18T08:10:59;58.20;;;34.15;;
7471;SDS011;3777;48.722;8.110;2022-12-18T08:13:26;60.83;;;34.97;;
7471;SDS011;3777;48.722;8.110;2022-12-18T08:15:57;59.65;;;34.83;;
7471;SDS011;3777;48.722;8.110;2022-12-18T08:18:26;63.60;;;36.92;;
7471;SDS011;3777;48.722;8.110;2022-12-18T08:20:53;60.57;;;35.67;;
7471;SDS011;3777;48.722;8.110;2022-12-18T08:23:20;63.42;;;36.85;;
7471;SDS011;3777;48.722;8.110;2022-12-18T08:25:48;59.45;;;34.70;;
7471;SDS011;3777;48.722;8.110;2022-12-18T08:28:16;58.05;;;34.83;;
7471;SDS011;3777;48.722;8.110;2022-12-18T08:30:43;59.22;;;36.05;;
7471;SDS011;3777;48.722;8.110;2022-12-18T08:33:10;60.30;;;36.00;;
7471;SDS011;3777;48.722;8.110;2022-12-18T08:35:38;61.45;;;35.90;;
7471;SDS011;3777;48.722;8.110;2022-12-18T08:38:05;64.28;;;37.00;;
7471;SDS011;3777;48.722;8.110;2022-12-18T08:40:32;60.95;;;35.08;;
7471;SDS011;3777;48.722;8.110;2022-12-18T08:42:59;62.50;;;36.00;;
7471;SDS011;3777;48.722;8.110;2022-12-18T08:45:43;58.28;;;35.20;;
7471;SDS011;3777;48.722;8.110;2022-12-18T08:48:10;57.28;;;35.45;;
7471;SDS011;3777;48.722;8.110;2022-12-18T08:50:38;60.80;;;36.28;;
7471;SDS011;3777;48.722;8.110;2022-12-18T08:53:05;58.72;;;36.22;;
7471;SDS011;3777;48.722;8.110;2022-12-18T08:55:32;59.37;;;37.10;;
7471;SDS011;3777;48.722;8.110;2022-12-18T08:57:59;61.90;;;37.42;;
7471;SDS011;3777;48.722;8.110;2022-12-18T09:00:26;63.33;;;36.08;;
7471;SDS011;3777;48.722;8.110;2022-12-18T09:02:53;60.53;;;35.60;;
7471;SDS011;3777;48.722;8.110;2022-12-18T09:05:20;60.55;;;35.83;;
7471;SDS011;3777;48.722;8.110;2022-12-18T09:07:49;60.60;;;35.90;;
7471;SDS011;3777;48.722;8.110;2022-12-18T09:10:16;57.38;;;33.88;;
7471;SDS011;3777;48.722;8.110;2022-12-18T09:12:43;60.63;;;35.83;;
7471;SDS011;3777;48.722;8.110;2022-12-18T09:15:10;58.45;;;35.05;;
7471;SDS011;3777;48.722;8.110;2022-12-18T09:17:37;62.95;;;36.92;;
7471;SDS011;3777;48.722;8.110;2022-12-18T09:20:04;61.28;;;36.35;;
7471;SDS011;3777;48.722;8.110;2022-12-18T09:22:32;66.95;;;39.70;;
7471;SDS011;3777;48.722;8.110;2022-12-18T09:25:00;71.65;;;40.83;;
7471;SDS011;3777;48.722;8.110;2022-12-18T09:27:32;62.55;;;36.47;;
7471;SDS011;3777;48.722;8.110;2022-12-18T09:29:59;65.18;;;38.90;;
7471;SDS011;3777;48.722;8.110;2022-12-18T09:32:26;61.28;;;37.65;;
7471;SDS011;3777;48.722;8.110;2022-12-18T09:34:53;64.50;;;37.97;;
7471;SDS011;3777;48.722;8.110;2022-12-18T09:37:20;62.47;;;37.05;;
7471;SDS011;3777;48.722;8.110;2022-12-18T09:39:47;63.80;;;37.60;;
7471;SDS011;3777;48.722;8.110;2022-12-18T09:42:17;64.18;;;38.47;;
7471;SDS011;3777;48.722;8.110;2022-12-18T09:44:48;66.80;;;39.80;;
7471;SDS011;3777;48.722;8.110;2022-12-18T09:47:18;65.57;;;40.05;;
7471;SDS011;3777;48.722;8.110;2022-12-18T09:49:50;69.15;;;40.15;;
7471;SDS011;3777;48.722;8.110;2022-12-18T09:52:23;66.38;;;39.22;;
7471;SDS011;3777;48.722;8.110;2022-12-18T09:54:54;66.87;;;39.70;;
7471;SDS011;3777;48.722;8.110;2022-12-18T09:57:28;65.75;;;39.03;;
7471;SDS011;3777;48.722;8.110;2022-12-18T09:59:58;68.10;;;39.80;;
7471;SDS011;3777;48.722;8.110;2022-12-18T10:02:32;64.47;;;39.47;;
7471;SDS011;3777;48.722;8.110;2022-12-18T10:05:02;67.68;;;40.33;;
7471;SDS011;3777;48.722;8.110;2022-12-18T10:07:37;67.45;;;39.65;;
7471;SDS011;3777;48.722;8.110;2022-12-18T10:10:13;66.50;;;38.20;;
7471;SDS011;3777;48.722;8.110;2022-12-18T10:12:51;67.72;;;40.08;;
7471;SDS011;3777;48.722;8.110;2022-12-18T10:15:27;69.03;;;40.33;;
7471;SDS011;3777;48.722;8.110;2022-12-18T10:18:02;65.35;;;38.92;;
7471;SDS011;3777;48.722;8.110;2022-12-18T10:20:38;67.22;;;39.33;;
7471;SDS011;3777;48.722;8.110;2022-12-18T10:23:11;69.78;;;41.03;;
7471;SDS011;3777;48.722;8.110;2022-12-18T10:25:47;70.75;;;41.33;;
7471;SDS011;3777;48.722;8.110;2022-12-18T10:28:21;71.85;;;39.60;;
7471;SDS011;3777;48.722;8.110;2022-12-18T10:30:50;71.65;;;40.75;;
7471;SDS011;3777;48.722;8.110;2022-12-18T10:33:18;69.57;;;40.30;;
7471;SDS011;3777;48.722;8.110;2022-12-18T10:35:47;68.00;;;39.33;;
7471;SDS011;3777;48.722;8.110;2022-12-18T10:38:23;64.15;;;37.05;;
7471;SDS011;3777;48.722;8.110;2022-12-18T10:40:52;66.15;;;38.63;;
7471;SDS011;3777;48.722;8.110;2022-12-18T10:43:22;64.20;;;39.22;;
7471;SDS011;3777;48.722;8.110;2022-12-18T10:48:49;65.97;;;39.65;;
7471;SDS011;3777;48.722;8.110;2022-12-18T10:51:19;66.55;;;39.95;;
7471;SDS011;3777;48.722;8.110;2022-12-18T10:53:51;63.40;;;38.95;;
7471;SDS011;3777;48.722;8.110;2022-12-18T10:56:21;62.70;;;31.63;;
7471;SDS011;3777;48.722;8.110;2022-12-18T10:58:56;64.23;;;37.33;;
7471;SDS011;3777;48.722;8.110;2022-12-18T11:01:25;64.43;;;37.95;;
7471;SDS011;3777;48.722;8.110;2022-12-18T11:04:02;74.40;;;41.20;;
7471;SDS011;3777;48.722;8.110;2022-12-18T11:06:35;63.27;;;38.40;;
7471;SDS011;3777;48.722;8.110;2022-12-18T11:09:21;63.15;;;39.10;;
7471;SDS011;3777;48.722;8.110;2022-12-18T11:11:49;66.45;;;39.17;;
7471;SDS011;3777;48.722;8.110;2022-12-18T11:14:20;65.70;;;38.35;;
7471;SDS011;3777;48.722;8.110;2022-12-18T11:16:49;67.32;;;39.97;;
7471;SDS011;3777;48.722;8.110;2022-12-18T11:19:28;69.20;;;38.58;;
7471;SDS011;3777;48.722;8.110;2022-12-18T11:21:59;66.63;;;39.70;;
7471;SDS011;3777;48.722;8.110;2022-12-18T11:24:28;69.65;;;41.58;;
7471;SDS011;3777;48.722;8.110;2022-12-18T11:26:57;70.30;;;42.55;;
7471;SDS011;3777;48.722;8.110;2022-12-18T11:29:30;63.08;;;37.42;;
7471;SDS011;3777;48.722;8.110;2022-12-18T11:32:18;67.93;;;40.70;;
7471;SDS011;3777;48.722;8.110;2022-12-18T11:34:51;68.93;;;40.45;;
7471;SDS011;3777;48.722;8.110;2022-12-18T11:37:24;69.20;;;41.53;;
7471;SDS011;3777;48.722;8.110;2022-12-18T11:39:52;63.73;;;38.57;;
7471;SDS011;3777;48.722;8.110;2022-12-18T11:42:24;66.32;;;40.08;;
7471;SDS011;3777;48.722;8.110;2022-12-18T11:45:00;68.30;;;40.35;;
7471;SDS011;3777;48.722;8.110;2022-12-18T11:47:35;65.47;;;38.30;;
7471;SDS011;3777;48.722;8.110;2022-12-18T11:50:10;66.33;;;38.67;;
7471;SDS011;3777;48.722;8.110;2022-12-18T11:52:40;62.27;;;36.90;;
7471;SDS011;3777;48.722;8.110;2022-12-18T11:55:10;65.53;;;37.97;;
7471;SDS011;3777;48.722;8.110;2022-12-18T11:57:41;61.03;;;37.27;;
7471;SDS011;3777;48.722;8.110;2022-12-18T12:00:17;59.90;;;36.78;;
7471;SDS011;3777;48.722;8.110;2022-12-18T12:02:56;64.00;;;37.72;;
7471;SDS011;3777;48.722;8.110;2022-12-18T12:05:49;63.95;;;37.03;;
7471;SDS011;3777;48.722;8.110;2022-12-18T12:08:26;64.38;;;39.05;;
7471;SDS011;3777;48.722;8.110;2022-12-18T12:11:02;64.95;;;38.08;;
7471;SDS011;3777;48.722;8.110;2022-12-18T12:13:39;67.75;;;39.17;;
7471;SDS011;3777;48.722;8.110;2022-12-18T12:16:17;68.53;;;38.50;;
7471;SDS011;3777;48.722;8.110;2022-12-18T12:18:56;65.30;;;38.88;;
7471;SDS011;3777;48.722;8.110;2022-12-18T12:21:35;60.13;;;36.63;;
7471;SDS011;3777;48.722;8.110;2022-12-18T12:24:09;60.95;;;36.55;;
7471;SDS011;3777;48.722;8.110;2022-12-18T12:26:49;61.25;;;37.83;;
7471;SDS011;3777;48.722;8.110;2022-12-18T12:29:31;64.05;;;38.90;;
7471;SDS011;3777;48.722;8.110;2022-12-18T12:32:14;62.28;;;37.80;;
7471;SDS011;3777;48.722;8.110;2022-12-18T12:35:04;63.60;;;38.10;;
7471;SDS011;3777;48.722;8.110;2022-12-18T12:37:44;62.92;;;36.58;;
7471;SDS011;3777;48.722;8.110;2022-12-18T12:40:22;63.93;;;38.03;;
7471;SDS011;3777;48.722;8.110;2022-12-18T12:42:54;64.05;;;39.20;;
7471;SDS011;3777;48.722;8.110;2022-12-18T12:45:40;62.25;;;37.78;;
7471;SDS011;3777;48.722;8.110;2022-12-18T12:48:15;61.97;;;36.80;;
7471;SDS011;3777;48.722;8.110;2022-12-18T12:50:45;61.58;;;36.88;;
7471;SDS011;3777;48.722;8.110;2022-12-18T12:53:17;59.25;;;37.80;;
7471;SDS011;3777;48.722;8.110;2022-12-18T12:55:49;60.65;;;37.45;;
7471;SDS011;3777;48.722;8.110;2022-12-18T12:58:20;60.08;;;38.50;;
7471;SDS011;3777;48.722;8.110;2022-12-18T13:00:58;64.70;;;40.47;;
7471;SDS011;3777;48.722;8.110;2022-12-18T13:03:34;66.15;;;39.85;;
7471;SDS011;3777;48.722;8.110;2022-12-18T13:06:10;61.70;;;40.05;;
7471;SDS011;3777;48.722;8.110;2022-12-18T13:08:53;59.50;;;37.47;;
7471;SDS011;3777;48.722;8.110;2022-12-18T13:11:35;59.13;;;37.70;;
7471;SDS011;3777;48.722;8.110;2022-12-18T13:14:22;59.33;;;36.93;;
7471;SDS011;3777;48.722;8.110;2022-12-18T13:16:52;62.67;;;38.30;;
7471;SDS011;3777;48.722;8.110;2022-12-18T13:20:05;60.10;;;37.95;;
7471;SDS011;3777;48.722;8.110;2022-12-18T13:22:35;68.05;;;39.20;;
7471;SDS011;3777;48.722;8.110;2022-12-18T13:28:04;62.00;;;39.75;;
7471;SDS011;3777;48.722;8.110;2022-12-18T13:30:44;65.65;;;40.45;;
7471;SDS011;3777;48.722;8.110;2022-12-18T13:36:15;62.80;;;41.25;;
7471;SDS011;3777;48.722;8.110;2022-12-18T13:45:36;65.78;;;40.70;;
7471;SDS011;3777;48.722;8.110;2022-12-18T13:48:15;65.60;;;40.33;;
7471;SDS011;3777;48.722;8.110;2022-12-18T13:50:57;66.90;;;41.47;;
7471;SDS011;3777;48.722;8.110;2022-12-18T13:53:29;71.25;;;43.35;;
7471;SDS011;3777;48.722;8.110;2022-12-18T13:56:00;64.93;;;39.90;;
7471;SDS011;3777;48.722;8.110;2022-12-18T13:58:28;61.92;;;37.58;;
7471;SDS011;3777;48.722;8.110;2022-12-18T14:00:55;59.03;;;38.33;;
7471;SDS011;3777;48.722;8.110;2022-12-18T14:03:24;62.97;;;39.95;;
7471;SDS011;3777;48.722;8.110;2022-12-18T14:05:53;64.35;;;39.70;;
7471;SDS011;3777;48.722;8.110;2022-12-18T14:08:22;59.42;;;37.55;;
7471;SDS011;3777;48.722;8.110;2022-12-18T14:10:54;62.97;;;39.97;;
7471;SDS011;3777;48.722;8.110;2022-12-18T14:13:24;69.53;;;42.13;;
7471;SDS011;3777;48.722;8.110;2022-12-18T14:15:54;65.68;;;40.22;;
7471;SDS011;3777;48.722;8.110;2022-12-18T14:18:23;65.60;;;39.65;;
7471;SDS011;3777;48.722;8.110;2022-12-18T14:20:53;64.88;;;40.13;;
7471;SDS011;3777;48.722;8.110;2022-12-18T14:23:27;69.07;;;40.17;;
7471;SDS011;3777;48.722;8.110;2022-12-18T14:26:00;66.38;;;40.28;;
7471;SDS011;3777;48.722;8.110;2022-12-18T14:28:29;67.82;;;41.08;;
7471;SDS011;3777;48.722;8.110;2022-12-18T14:30:56;70.38;;;41.28;;
7471;SDS011;3777;48.722;8.110;2022-12-18T14:33:23;67.07;;;40.65;;
7471;SDS011;3777;48.722;8.110;2022-12-18T14:35:53;69.38;;;40.58;;
7471;SDS011;3777;48.722;8.110;2022-12-18T14:38:24;63.55;;;39.25;;
7471;SDS011;3777;48.722;8.110;2022-12-18T14:40:54;68.97;;;41.70;;
7471;SDS011;3777;48.722;8.110;2022-12-18T14:43:28;73.90;;;42.58;;
7471;SDS011;3777;48.722;8.110;2022-12-18T14:45:57;69.28;;;40.90;;
7471;SDS011;3777;48.722;8.110;2022-12-18T14:48:32;69.72;;;40.63;;
7471;SDS011;3777;48.722;8.110;2022-12-18T14:51:03;71.20;;;42.47;;
7471;SDS011;3777;48.722;8.110;2022-12-18T14:53:33;72.23;;;42.53;;
7471;SDS011;3777;48.722;8.110;2022-12-18T14:56:03;70.25;;;42.30;;
7471;SDS011;3777;48.722;8.110;2022-12-18T14:58:39;76.22;;;41.47;;
7471;SDS011;3777;48.722;8.110;2022-12-18T15:01:17;70.70;;;42.60;;
7471;SDS011;3777;48.722;8.110;2022-12-18T15:03:45;71.78;;;42.13;;
7471;SDS011;3777;48.722;8.110;2022-12-18T15:06:16;72.90;;;42.75;;
7471;SDS011;3777;48.722;8.110;2022-12-18T15:08:44;72.18;;;41.65;;
7471;SDS011;3777;48.722;8.110;2022-12-18T15:11:27;73.47;;;41.85;;
7471;SDS011;3777;48.722;8.110;2022-12-18T15:16:50;66.57;;;39.75;;
7471;SDS011;3777;48.722;8.110;2022-12-18T15:19:19;67.57;;;41.00;;
7471;SDS011;3777;48.722;8.110;2022-12-18T15:21:47;69.10;;;40.00;;
7471;SDS011;3777;48.722;8.110;2022-12-18T15:24:16;64.93;;;40.20;;
7471;SDS011;3777;48.722;8.110;2022-12-18T15:26:46;66.07;;;40.22;;
7471;SDS011;3777;48.722;8.110;2022-12-18T15:29:18;66.05;;;39.53;;
7471;SDS011;3777;48.722;8.110;2022-12-18T15:32:04;63.60;;;38.53;;